Time;durP1;ratioP1;P1;durP2;ratioP2;P2;SDS_P1;SDS_P2;PMS_P1;PMS_P2;Temp;Humidity;BMP_temperature;BMP_pressure;BME280_temperature;BME280_humidity;BME280_pressure;Samples;Min_cycle;Max_cycle;Signal;HPM_P1;HPM_P2
2021/05/20 00:00:03;;;;;;;3.90;2.33;;;;;;;;;;4976343;28;20369;-84
2021/05/20 00:02:29;;;;;;;4.82;2.10;;;;;;;;;;4990777;28;20494;-87
2021/05/20 00:04:56;;;;;;;6.53;2.60;;;;;;;;;;4975222;28;20026;-85
2021/05/20 00:07:22;;;;;;;4.40;2.38;;;;;;;;;;4976281;28;20058;-87
2021/05/20 00:09:48;;;;;;;5.82;1.98;;;;;;;;;;4990762;28;20117;-88
2021/05/20 00:12:15;;;;;;;5.70;2.10;;;;;;;;;;4990997;28;20031;-85
2021/05/20 00:14:41;;;;;;;3.28;1.98;;;;;;;;;;4975836;28;20010;-87
2021/05/20 00:17:08;;;;;;;7.68;2.60;;;;;;;;;;4976246;28;20074;-87
2021/05/20 00:19:34;;;;;;;3.53;2.20;;;;;;;;;;4989988;28;20031;-87
2021/05/20 00:22:01;;;;;;;4.72;2.40;;;;;;;;;;4976404;28;20073;-87
2021/05/20 00:24:27;;;;;;;4.32;2.03;;;;;;;;;;4979355;28;20117;-87
2021/05/20 00:26:54;;;;;;;3.53;1.60;;;;;;;;;;4994451;28;20468;-87
2021/05/20 00:29:20;;;;;;;5.10;2.33;;;;;;;;;;4979403;28;20034;-86
2021/05/20 00:31:47;;;;;;;2.90;1.75;;;;;;;;;;4979926;28;20073;-84
2021/05/20 00:34:13;;;;;;;3.72;1.67;;;;;;;;;;4978631;28;20030;-87
2021/05/20 00:36:39;;;;;;;4.20;1.70;;;;;;;;;;4979745;28;20489;-87
2021/05/20 00:39:06;;;;;;;3.25;1.60;;;;;;;;;;4994106;28;20085;-85
2021/05/20 00:41:33;;;;;;;3.53;1.58;;;;;;;;;;4978848;28;20463;-86
2021/05/20 00:43:59;;;;;;;5.25;2.00;;;;;;;;;;4979332;28;20365;-85
2021/05/20 00:46:26;;;;;;;5.15;1.77;;;;;;;;;;4979088;28;20035;-84
2021/05/20 00:48:52;;;;;;;3.15;1.80;;;;;;;;;;4993557;28;20030;-86
2021/05/20 00:51:18;;;;;;;3.38;1.60;;;;;;;;;;4993838;28;20504;-85
2021/05/20 00:53:47;;;;;;;3.72;1.67;;;;;;;;;;4994109;28;20027;-85
2021/05/20 00:56:14;;;;;;;3.60;1.88;;;;;;;;;;4994039;28;20030;-87
2021/05/20 00:58:43;;;;;;;2.58;1.58;;;;;;;;;;4993837;28;20098;-83
2021/05/20 01:01:10;;;;;;;2.47;1.48;;;;;;;;;;4993531;28;20165;-86
2021/05/20 01:03:36;;;;;;;3.17;1.63;;;;;;;;;;4993489;28;20065;-86
2021/05/20 01:06:02;;;;;;;3.58;1.52;;;;;;;;;;4977751;28;20535;-87
2021/05/20 01:08:28;;;;;;;3.60;1.70;;;;;;;;;;4993947;28;20034;-81
2021/05/20 01:10:55;;;;;;;3.38;1.58;;;;;;;;;;4978596;28;20035;-87
2021/05/20 01:13:22;;;;;;;3.00;1.38;;;;;;;;;;4994124;28;20027;-87
2021/05/20 01:15:48;;;;;;;3.92;1.50;;;;;;;;;;4978929;28;20026;-87
2021/05/20 01:18:15;;;;;;;2.95;1.60;;;;;;;;;;4978479;28;20407;-85
2021/05/20 01:20:42;;;;;;;2.88;1.40;;;;;;;;;;4978396;28;20031;-86
2021/05/20 01:23:12;;;;;;;3.25;1.55;;;;;;;;;;4993591;28;20035;-87
2021/05/20 01:25:39;;;;;;;2.97;1.45;;;;;;;;;;4993544;28;20050;-88
2021/05/20 01:28:07;;;;;;;3.90;1.80;;;;;;;;;;4993464;28;20114;-83
2021/05/20 01:30:34;;;;;;;3.15;1.25;;;;;;;;;;4978650;28;20106;-87
2021/05/20 01:33:00;;;;;;;2.38;1.17;;;;;;;;;;4993239;28;20038;-90
2021/05/20 01:35:27;;;;;;;4.82;1.52;;;;;;;;;;4993184;28;20037;-82
2021/05/20 01:38:10;;;;;;;5.50;1.92;;;;;;;;;;4992487;28;20027;-86
2021/05/20 01:40:36;;;;;;;2.72;1.30;;;;;;;;;;4993101;28;20035;-84
2021/05/20 01:43:02;;;;;;;3.28;1.48;;;;;;;;;;4992630;28;20038;-84
2021/05/20 01:45:31;;;;;;;3.13;1.52;;;;;;;;;;4993106;28;20454;-86
2021/05/20 01:47:58;;;;;;;8.63;1.85;;;;;;;;;;4993158;28;20023;-86
2021/05/20 01:50:24;;;;;;;7.40;1.60;;;;;;;;;;4994840;28;20034;-88
2021/05/20 01:52:50;;;;;;;2.92;1.52;;;;;;;;;;4987989;28;20480;-86
2021/05/20 01:55:17;;;;;;;3.20;1.50;;;;;;;;;;4980146;28;20027;-87
2021/05/20 01:57:43;;;;;;;4.55;1.58;;;;;;;;;;4992260;28;20031;-87
2021/05/20 02:00:10;;;;;;;3.17;1.73;;;;;;;;;;4993011;28;20085;-85
2021/05/20 02:02:36;;;;;;;3.42;1.88;;;;;;;;;;4992768;28;20077;-81
2021/05/20 02:05:02;;;;;;;8.55;1.98;;;;;;;;;;4977999;28;20030;-87
2021/05/20 02:07:28;;;;;;;3.45;1.48;;;;;;;;;;4992214;28;20039;-82
2021/05/20 02:09:55;;;;;;;2.92;1.45;;;;;;;;;;4992592;28;20039;-85
2021/05/20 02:12:21;;;;;;;4.50;1.80;;;;;;;;;;4991874;28;20037;-87
2021/05/20 02:14:47;;;;;;;2.75;1.33;;;;;;;;;;4977964;28;20081;-87
2021/05/20 02:17:14;;;;;;;3.63;1.48;;;;;;;;;;4992480;28;20023;-88
2021/05/20 02:19:40;;;;;;;3.72;1.50;;;;;;;;;;4993317;28;20480;-83
2021/05/20 02:22:06;;;;;;;3.35;1.20;;;;;;;;;;4977180;28;20105;-84
2021/05/20 02:24:33;;;;;;;2.60;1.42;;;;;;;;;;4991839;28;20035;-88
2021/05/20 02:26:59;;;;;;;8.68;1.48;;;;;;;;;;4977335;28;20081;-86
2021/05/20 02:29:25;;;;;;;3.03;1.65;;;;;;;;;;4977529;28;20499;-86
2021/05/20 02:31:52;;;;;;;3.88;1.48;;;;;;;;;;4983538;28;20027;-83
2021/05/20 02:34:18;;;;;;;2.38;1.33;;;;;;;;;;4987775;28;20027;-83
2021/05/20 02:36:44;;;;;;;7.55;1.60;;;;;;;;;;4992625;28;20030;-85
2021/05/20 02:39:11;;;;;;;3.25;1.77;;;;;;;;;;4977344;28;20034;-88
2021/05/20 02:41:37;;;;;;;2.70;1.55;;;;;;;;;;4977501;28;20065;-83
2021/05/20 02:44:03;;;;;;;3.88;1.65;;;;;;;;;;4976318;28;20034;-83
2021/05/20 02:46:30;;;;;;;4.03;1.75;;;;;;;;;;4976344;28;20027;-86
2021/05/20 02:48:56;;;;;;;3.58;1.65;;;;;;;;;;4991898;28;20118;-85
2021/05/20 02:51:23;;;;;;;2.88;1.60;;;;;;;;;;4992142;28;20031;-87
2021/05/20 02:53:49;;;;;;;4.47;1.85;;;;;;;;;;4977277;28;20459;-86
2021/05/20 02:56:15;;;;;;;3.10;1.65;;;;;;;;;;4991785;28;20472;-83
2021/05/20 02:58:42;;;;;;;5.15;1.80;;;;;;;;;;4975994;28;20038;-86
2021/05/20 03:01:08;;;;;;;4.85;1.80;;;;;;;;;;4976809;28;20023;-83
2021/05/20 03:03:34;;;;;;;2.92;1.42;;;;;;;;;;4976807;28;20035;-86
2021/05/20 03:06:00;;;;;;;2.85;1.40;;;;;;;;;;4991438;28;20560;-88
2021/05/20 03:08:27;;;;;;;4.60;2.30;;;;;;;;;;4991519;28;20023;-87
2021/05/20 03:10:53;;;;;;;3.83;1.50;;;;;;;;;;4991261;28;20034;-87
2021/05/20 03:13:19;;;;;;;3.20;1.70;;;;;;;;;;4991208;28;20148;-87
2021/05/20 03:15:45;;;;;;;3.65;1.90;;;;;;;;;;4990929;28;20526;-84
2021/05/20 03:18:12;;;;;;;4.15;1.55;;;;;;;;;;4991042;28;20134;-83
2021/05/20 03:20:38;;;;;;;2.80;1.40;;;;;;;;;;4976598;28;20026;-87
2021/05/20 03:23:04;;;;;;;3.53;1.73;;;;;;;;;;4991423;28;20011;-87
2021/05/20 03:25:34;;;;;;;3.15;1.70;;;;;;;;;;4991436;28;20065;-83
2021/05/20 03:28:00;;;;;;;3.00;1.70;;;;;;;;;;4975882;28;20015;-86
2021/05/20 03:30:27;;;;;;;3.85;1.85;;;;;;;;;;4975998;28;20035;-87
2021/05/20 03:32:53;;;;;;;2.35;1.42;;;;;;;;;;4991197;28;20058;-83
2021/05/20 03:35:19;;;;;;;3.65;1.55;;;;;;;;;;4977461;28;20038;-87
2021/05/20 03:37:46;;;;;;;5.45;1.67;;;;;;;;;;4991208;28;20039;-86
2021/05/20 03:40:12;;;;;;;2.13;1.27;;;;;;;;;;4980571;28;20035;-87
2021/05/20 03:42:38;;;;;;;4.15;1.63;;;;;;;;;;4982731;28;20027;-85
2021/05/20 03:45:05;;;;;;;4.35;1.60;;;;;;;;;;4990647;28;20037;-84
2021/05/20 03:47:31;;;;;;;5.32;1.92;;;;;;;;;;4976153;28;20488;-89
2021/05/20 03:49:58;;;;;;;2.55;1.50;;;;;;;;;;4990827;28;20023;-84
2021/05/20 03:52:24;;;;;;;2.28;1.40;;;;;;;;;;4975716;28;20034;-88
2021/05/20 03:54:51;;;;;;;3.22;1.65;;;;;;;;;;4976244;28;20030;-87
2021/05/20 03:57:17;;;;;;;2.53;1.40;;;;;;;;;;4977911;28;20061;-82
2021/05/20 03:59:43;;;;;;;2.22;1.20;;;;;;;;;;4994647;28;20023;-84
2021/05/20 04:02:09;;;;;;;15.43;1.48;;;;;;;;;;4980239;28;20035;-88
2021/05/20 04:04:36;;;;;;;2.75;1.40;;;;;;;;;;4995131;28;20368;-85
2021/05/20 04:07:02;;;;;;;2.22;1.05;;;;;;;;;;4994323;28;20047;-87
2021/05/20 04:09:29;;;;;;;3.40;1.52;;;;;;;;;;4980182;28;20050;-84
2021/05/20 04:11:55;;;;;;;2.85;1.60;;;;;;;;;;4979945;28;20033;-84
2021/05/20 04:14:21;;;;;;;3.47;1.60;;;;;;;;;;4994161;28;20571;-88
2021/05/20 04:16:48;;;;;;;3.63;1.48;;;;;;;;;;4980429;28;20046;-85
2021/05/20 04:19:15;;;;;;;2.95;1.45;;;;;;;;;;4994850;28;20070;-87
2021/05/20 04:21:42;;;;;;;2.60;1.40;;;;;;;;;;4995009;28;20488;-87
2021/05/20 04:24:09;;;;;;;2.67;1.38;;;;;;;;;;4979936;28;20027;-87
2021/05/20 04:26:35;;;;;;;2.35;1.17;;;;;;;;;;4994882;28;20031;-85
2021/05/20 04:29:01;;;;;;;3.55;1.70;;;;;;;;;;4994236;28;20022;-87
2021/05/20 04:31:27;;;;;;;2.38;1.50;;;;;;;;;;4979319;28;20034;-88
2021/05/20 04:33:54;;;;;;;6.93;1.30;;;;;;;;;;4980759;28;20357;-87
2021/05/20 04:36:20;;;;;;;3.15;1.50;;;;;;;;;;4980005;28;20062;-87
2021/05/20 04:38:47;;;;;;;2.70;1.38;;;;;;;;;;4994418;28;20034;-83
2021/05/20 04:41:13;;;;;;;2.90;1.70;;;;;;;;;;4994667;28;20058;-87
2021/05/20 04:43:39;;;;;;;2.88;1.58;;;;;;;;;;4994306;28;20059;-84
2021/05/20 04:46:06;;;;;;;3.17;1.60;;;;;;;;;;4978813;28;20027;-83
2021/05/20 04:48:32;;;;;;;2.20;1.27;;;;;;;;;;4994431;28;20392;-87
2021/05/20 04:51:00;;;;;;;4.90;1.45;;;;;;;;;;4994351;28;20109;-86
2021/05/20 04:53:27;;;;;;;2.25;1.30;;;;;;;;;;4994173;28;20114;-87
2021/05/20 04:55:54;;;;;;;2.58;1.45;;;;;;;;;;4994186;28;20027;-87
2021/05/20 04:58:22;;;;;;;4.75;1.45;;;;;;;;;;4979127;28;20093;-84
2021/05/20 05:00:48;;;;;;;2.78;1.42;;;;;;;;;;4999237;28;20011;-86
2021/05/20 05:03:15;;;;;;;2.95;1.35;;;;;;;;;;5005341;28;20546;-87
2021/05/20 05:05:41;;;;;;;3.28;1.63;;;;;;;;;;4993606;28;20027;-85
2021/05/20 05:08:07;;;;;;;3.75;1.73;;;;;;;;;;4978608;28;20105;-84
2021/05/20 05:10:33;;;;;;;2.72;1.48;;;;;;;;;;4993397;28;20472;-87
2021/05/20 05:12:59;;;;;;;3.53;1.65;;;;;;;;;;4993806;28;20105;-85
2021/05/20 05:15:25;;;;;;;4.25;1.60;;;;;;;;;;4992810;28;20027;-82
2021/05/20 05:17:52;;;;;;;3.97;2.00;;;;;;;;;;4993441;28;20031;-85
2021/05/20 05:20:19;;;;;;;3.45;1.70;;;;;;;;;;4993537;28;20053;-87
2021/05/20 05:22:45;;;;;;;2.60;1.42;;;;;;;;;;4993559;28;20074;-82
2021/05/20 05:25:12;;;;;;;3.45;1.45;;;;;;;;;;4979248;28;20027;-86
2021/05/20 05:27:38;;;;;;;4.40;1.95;;;;;;;;;;4993525;28;20031;-86
2021/05/20 05:30:04;;;;;;;4.53;2.17;;;;;;;;;;4976724;28;20082;-85
2021/05/20 05:32:30;;;;;;;3.13;1.67;;;;;;;;;;4988655;28;20118;-86
2021/05/20 05:34:57;;;;;;;5.60;1.92;;;;;;;;;;4992544;28;20379;-84
2021/05/20 05:37:23;;;;;;;3.50;1.80;;;;;;;;;;4971321;28;20023;-85
2021/05/20 05:39:49;;;;;;;3.75;1.88;;;;;;;;;;4987996;28;20034;-86
2021/05/20 05:42:15;;;;;;;3.65;1.80;;;;;;;;;;4984898;28;20113;-86
2021/05/20 05:44:41;;;;;;;4.55;1.90;;;;;;;;;;4992725;28;20035;-85
2021/05/20 05:47:08;;;;;;;3.63;1.98;;;;;;;;;;4992302;28;20023;-86
2021/05/20 05:49:41;;;;;;;4.10;2.10;;;;;;;;;;4992545;28;20027;-84
2021/05/20 05:52:09;;;;;;;5.85;2.40;;;;;;;;;;4958995;28;20023;-83
2021/05/20 05:54:35;;;;;;;6.57;2.08;;;;;;;;;;4958237;28;20385;-85
2021/05/20 05:57:02;;;;;;;5.00;2.20;;;;;;;;;;4973252;28;20057;-85
2021/05/20 05:59:28;;;;;;;3.72;2.00;;;;;;;;;;4973428;28;20576;-84
2021/05/20 06:01:54;;;;;;;3.92;1.98;;;;;;;;;;4973392;28;20027;-83
2021/05/20 06:04:20;;;;;;;4.53;2.50;;;;;;;;;;4958096;28;20023;-86
2021/05/20 06:06:47;;;;;;;2.97;1.80;;;;;;;;;;4957472;28;20055;-85
2021/05/20 06:09:14;;;;;;;3.35;1.80;;;;;;;;;;4971917;28;20471;-83
2021/05/20 06:11:42;;;;;;;3.70;1.85;;;;;;;;;;4957694;28;20028;-83
2021/05/20 06:14:10;;;;;;;6.40;2.78;;;;;;;;;;4972940;28;20019;-82
2021/05/20 06:16:39;;;;;;;5.50;2.47;;;;;;;;;;4958234;28;20031;-84
2021/05/20 06:19:05;;;;;;;5.22;2.40;;;;;;;;;;4957424;28;20422;-80
2021/05/20 06:21:31;;;;;;;3.63;1.73;;;;;;;;;;4956110;28;20023;-79
2021/05/20 06:23:57;;;;;;;4.55;2.03;;;;;;;;;;4972742;28;20122;-83
2021/05/20 06:26:24;;;;;;;2.97;1.58;;;;;;;;;;4974027;28;20027;-87
2021/05/20 06:28:50;;;;;;;4.78;2.42;;;;;;;;;;4975918;28;20126;-86
2021/05/20 06:31:16;;;;;;;5.45;2.08;;;;;;;;;;4977128;28;20042;-83
2021/05/20 06:33:42;;;;;;;4.93;2.35;;;;;;;;;;4976739;28;20473;-84
2021/05/20 06:36:10;;;;;;;3.20;1.63;;;;;;;;;;4974919;28;20038;-80
2021/05/20 06:38:36;;;;;;;5.38;2.15;;;;;;;;;;4976645;28;20543;-81
2021/05/20 06:41:06;;;;;;;4.88;2.00;;;;;;;;;;4975586;28;20138;-84
2021/05/20 06:43:32;;;;;;;4.63;1.98;;;;;;;;;;4975836;28;20122;-83
2021/05/20 06:45:58;;;;;;;2.67;1.95;;;;;;;;;;4975381;28;20416;-82
2021/05/20 06:48:24;;;;;;;4.50;1.80;;;;;;;;;;4975364;28;20030;-85
2021/05/20 06:50:50;;;;;;;4.15;2.15;;;;;;;;;;4974708;28;20041;-81
2021/05/20 06:53:22;;;;;;;3.47;2.00;;;;;;;;;;4975247;28;20023;-85
2021/05/20 06:55:48;;;;;;;3.85;2.00;;;;;;;;;;4975357;28;20042;-83
2021/05/20 07:00:41;;;;;;;3.70;1.98;;;;;;;;;;4976216;28;20031;-82
2021/05/20 07:03:15;;;;;;;4.07;1.73;;;;;;;;;;4975306;28;20027;-83
2021/05/20 07:05:41;;;;;;;3.80;1.77;;;;;;;;;;4975071;28;20038;-86
2021/05/20 07:08:08;;;;;;;3.17;1.70;;;;;;;;;;4974818;28;20137;-83
2021/05/20 07:10:34;;;;;;;3.17;1.50;;;;;;;;;;4974144;28;20031;-80
2021/05/20 07:13:00;;;;;;;6.20;2.20;;;;;;;;;;4975032;28;20027;-87
2021/05/20 07:15:28;;;;;;;5.43;1.67;;;;;;;;;;4976327;28;20483;-82
2021/05/20 07:17:55;;;;;;;2.35;1.30;;;;;;;;;;4976257;28;20030;-86
2021/05/20 07:20:21;;;;;;;2.78;1.77;;;;;;;;;;4975680;28;20034;-85
2021/05/20 07:22:47;;;;;;;2.50;1.50;;;;;;;;;;4974874;28;20031;-83
2021/05/20 07:25:13;;;;;;;6.80;1.60;;;;;;;;;;4975898;28;20027;-87
2021/05/20 07:27:39;;;;;;;4.28;2.15;;;;;;;;;;4974985;28;20031;-81
2021/05/20 07:30:06;;;;;;;3.05;1.70;;;;;;;;;;4991320;28;20027;-84
2021/05/20 07:32:32;;;;;;;3.53;1.83;;;;;;;;;;4991020;28;20026;-85
2021/05/20 07:34:58;;;;;;;3.75;1.88;;;;;;;;;;4991089;28;20043;-84
2021/05/20 07:37:24;;;;;;;9.23;2.22;;;;;;;;;;5000811;28;20027;-81
2021/05/20 07:39:50;;;;;;;3.67;1.85;;;;;;;;;;5003003;28;20031;-84
2021/05/20 07:42:16;;;;;;;4.63;1.73;;;;;;;;;;4991038;28;20027;-85
2021/05/20 07:44:44;;;;;;;3.75;1.80;;;;;;;;;;4990803;28;20035;-85
2021/05/20 07:47:10;;;;;;;7.00;1.85;;;;;;;;;;4990591;28;20499;-82
2021/05/20 07:49:37;;;;;;;2.03;1.27;;;;;;;;;;4976446;28;20011;-85
2021/05/20 07:52:07;;;;;;;4.18;1.70;;;;;;;;;;4990645;28;20484;-86
2021/05/20 07:54:33;;;;;;;2.78;1.52;;;;;;;;;;4989821;28;20057;-82
2021/05/20 07:57:00;;;;;;;3.55;1.73;;;;;;;;;;4975500;28;20109;-86
2021/05/20 07:59:26;;;;;;;3.20;1.73;;;;;;;;;;4990621;28;20488;-80
2021/05/20 08:02:10;;;;;;;3.65;1.60;;;;;;;;;;4991061;28;20027;-87
2021/05/20 08:04:37;;;;;;;3.45;1.55;;;;;;;;;;4991194;28;20109;-86
2021/05/20 08:12:29;;;;;;;3.17;1.50;;;;;;;;;;4976693;28;20077;-89
2021/05/20 08:14:55;;;;;;;3.20;1.63;;;;;;;;;;4991145;28;20086;-86
2021/05/20 08:17:21;;;;;;;5.93;2.13;;;;;;;;;;4990261;28;20023;-89
2021/05/20 08:19:47;;;;;;;10.68;1.67;;;;;;;;;;4975742;28;20062;-88
2021/05/20 08:22:14;;;;;;;3.28;1.30;;;;;;;;;;4975371;28;20464;-89
2021/05/20 08:24:40;;;;;;;3.72;1.60;;;;;;;;;;4975928;28;20034;-90
2021/05/20 08:27:11;;;;;;;4.35;1.50;;;;;;;;;;4983805;28;20046;-86
2021/05/20 08:29:37;;;;;;;4.75;1.70;;;;;;;;;;4971399;28;20023;-89
2021/05/20 08:32:03;;;;;;;2.42;1.30;;;;;;;;;;4956866;28;20086;-89
2021/05/20 08:34:29;;;;;;;3.17;1.15;;;;;;;;;;4956584;28;20065;-87
2021/05/20 08:36:55;;;;;;;2.25;1.00;;;;;;;;;;4970406;28;20403;-89
2021/05/20 08:39:21;;;;;;;1.40;0.80;;;;;;;;;;4970867;28;20091;-88
2021/05/20 08:41:48;;;;;;;1.77;0.90;;;;;;;;;;4977903;28;20035;-88
2021/05/20 08:44:17;;;;;;;2.22;1.10;;;;;;;;;;4956960;28;20035;-88
2021/05/20 08:46:43;;;;;;;1.98;1.00;;;;;;;;;;4974513;28;20081;-89
2021/05/20 08:49:16;;;;;;;1.52;0.80;;;;;;;;;;4974591;28;20492;-89
2021/05/20 08:51:43;;;;;;;1.90;0.98;;;;;;;;;;4959719;28;20065;-80
2021/05/20 08:54:10;;;;;;;1.60;0.82;;;;;;;;;;4958622;28;20473;-89
2021/05/20 08:56:36;;;;;;;2.05;1.00;;;;;;;;;;4960022;28;20020;-90
2021/05/20 08:59:03;;;;;;;1.73;0.77;;;;;;;;;;4974725;28;20066;-89
2021/05/20 09:01:36;;;;;;;1.75;0.80;;;;;;;;;;4959575;28;20027;-88
2021/05/20 09:04:02;;;;;;;1.35;0.80;;;;;;;;;;4974748;28;20031;-87
2021/05/20 09:06:40;;;;;;;1.92;0.90;;;;;;;;;;4974550;28;20047;-88
2021/05/20 09:09:14;;;;;;;1.70;0.75;;;;;;;;;;4989861;28;20082;-90
2021/05/20 09:11:50;;;;;;;1.98;0.90;;;;;;;;;;4978880;28;20484;-88
2021/05/20 09:14:30;;;;;;;3.28;0.73;;;;;;;;;;4993628;28;20396;-88
2021/05/20 09:17:11;;;;;;;3.03;0.70;;;;;;;;;;4993684;28;20027;-89
2021/05/20 09:19:38;;;;;;;2.78;0.60;;;;;;;;;;4988852;28;20515;-89
2021/05/20 09:22:14;;;;;;;1.48;0.70;;;;;;;;;;4987078;28;20062;-88
2021/05/20 09:24:46;;;;;;;1.45;0.80;;;;;;;;;;4991414;28;20030;-88
2021/05/20 09:27:36;;;;;;;1.80;1.00;;;;;;;;;;4992887;28;20063;-88
2021/05/20 09:30:12;;;;;;;2.97;1.00;;;;;;;;;;4977963;28;20034;-88
2021/05/20 09:32:41;;;;;;;2.28;1.05;;;;;;;;;;4993854;28;20039;-87
2021/05/20 09:35:07;;;;;;;2.90;0.90;;;;;;;;;;4993520;28;20023;-87
2021/05/20 09:37:34;;;;;;;1.77;0.80;;;;;;;;;;4993110;28;20120;-88
2021/05/20 09:40:01;;;;;;;2.45;0.95;;;;;;;;;;4993209;28;20031;-87
2021/05/20 09:42:31;;;;;;;1.10;0.77;;;;;;;;;;4993021;28;20128;-88
2021/05/20 09:45:07;;;;;;;1.25;0.80;;;;;;;;;;4993013;28;20035;-86
2021/05/20 09:47:33;;;;;;;1.75;0.90;;;;;;;;;;4992974;28;20026;-89
2021/05/20 09:50:00;;;;;;;3.70;0.70;;;;;;;;;;4992637;28;20031;-89
2021/05/20 09:52:27;;;;;;;2.53;0.93;;;;;;;;;;4977108;28;20027;-89
2021/05/20 09:54:54;;;;;;;1.60;0.70;;;;;;;;;;4977711;28;20484;-88
2021/05/20 09:57:27;;;;;;;1.45;0.80;;;;;;;;;;4992506;28;20047;-88
2021/05/20 10:00:09;;;;;;;2.85;0.82;;;;;;;;;;4992506;28;20487;-89
2021/05/20 10:02:36;;;;;;;2.85;0.68;;;;;;;;;;4978975;28;20042;-89
2021/05/20 10:05:19;;;;;;;2.17;0.70;;;;;;;;;;4992810;28;20038;-89
2021/05/20 10:07:45;;;;;;;5.57;0.80;;;;;;;;;;4977602;28;20077;-88
2021/05/20 10:10:11;;;;;;;3.17;0.82;;;;;;;;;;4992265;28;20033;-88
2021/05/20 10:12:43;;;;;;;1.00;0.50;;;;;;;;;;4977597;28;20050;-87
2021/05/20 10:15:10;;;;;;;1.25;0.57;;;;;;;;;;4990658;28;20077;-87
2021/05/20 10:17:36;;;;;;;1.30;0.60;;;;;;;;;;4970958;28;20461;-89
2021/05/20 10:20:05;;;;;;;1.42;0.70;;;;;;;;;;4973641;28;20035;-88
2021/05/20 10:22:32;;;;;;;4.25;0.70;;;;;;;;;;4973411;28;20038;-87
2021/05/20 10:24:59;;;;;;;1.40;0.68;;;;;;;;;;4970904;28;20118;-87
2021/05/20 10:27:26;;;;;;;1.13;0.60;;;;;;;;;;4970668;28;20501;-88
2021/05/20 10:29:52;;;;;;;1.38;0.68;;;;;;;;;;4972223;28;20083;-88
2021/05/20 10:32:19;;;;;;;1.08;0.50;;;;;;;;;;4957021;29;20031;-86
2021/05/20 10:35:11;;;;;;;2.08;0.68;;;;;;;;;;4972315;28;20036;-87
2021/05/20 10:37:38;;;;;;;1.30;0.52;;;;;;;;;;4953884;29;20042;-87
2021/05/20 10:40:11;;;;;;;10.48;0.63;;;;;;;;;;4971744;28;20059;-87
2021/05/20 10:42:42;;;;;;;2.83;0.77;;;;;;;;;;4957273;29;20089;-88
2021/05/20 10:45:19;;;;;;;1.38;0.60;;;;;;;;;;4972211;28;20366;-87
2021/05/20 10:48:07;;;;;;;1.58;0.60;;;;;;;;;;4973245;28;20035;-88
2021/05/20 10:50:46;;;;;;;2.22;0.80;;;;;;;;;;4973968;28;20027;-86
2021/05/20 10:53:12;;;;;;;1.15;0.55;;;;;;;;;;4972402;28;20511;-80
2021/05/20 10:55:38;;;;;;;5.28;0.85;;;;;;;;;;4972549;28;20394;-88
2021/05/20 10:58:05;;;;;;;2.95;0.80;;;;;;;;;;4972617;28;20094;-87
2021/05/20 11:00:31;;;;;;;1.70;0.70;;;;;;;;;;4972138;28;20405;-86
2021/05/20 11:02:59;;;;;;;1.92;0.95;;;;;;;;;;4971497;28;20082;-87
2021/05/20 11:05:40;;;;;;;1.90;1.00;;;;;;;;;;4956684;28;20035;-87
2021/05/20 11:08:25;;;;;;;2.95;0.90;;;;;;;;;;4971260;28;20094;-86
2021/05/20 11:10:52;;;;;;;1.45;0.80;;;;;;;;;;4971342;28;20023;-87
2021/05/20 11:13:35;;;;;;;1.48;0.60;;;;;;;;;;4956897;29;20481;-88
2021/05/20 11:16:13;;;;;;;2.22;0.98;;;;;;;;;;4957468;28;20034;-87
2021/05/20 11:18:40;;;;;;;2.38;0.85;;;;;;;;;;4985379;28;20046;-88
2021/05/20 11:21:06;;;;;;;2.15;1.00;;;;;;;;;;4976610;28;20053;-88
2021/05/20 11:23:34;;;;;;;1.90;1.02;;;;;;;;;;4975126;28;20026;-87
2021/05/20 11:26:20;;;;;;;1.90;0.90;;;;;;;;;;4976121;28;20110;-87
2021/05/20 11:28:49;;;;;;;5.85;1.60;;;;;;;;;;4974865;28;20398;-88
2021/05/20 11:31:18;;;;;;;1.67;0.93;;;;;;;;;;4976520;28;20022;-88
2021/05/20 11:36:13;;;;;;;2.50;1.20;;;;;;;;;;4975856;28;20054;-88
2021/05/20 11:38:51;;;;;;;1.50;0.80;;;;;;;;;;4974079;28;20035;-87
2021/05/20 11:41:17;;;;;;;2.53;0.80;;;;;;;;;;4974191;28;20132;-86
2021/05/20 11:43:43;;;;;;;1.75;0.90;;;;;;;;;;4975918;28;20495;-87
2021/05/20 11:46:19;;;;;;;3.03;0.98;;;;;;;;;;4975961;28;20023;-85
2021/05/20 11:48:58;;;;;;;2.72;1.10;;;;;;;;;;4975984;28;20399;-87
2021/05/20 11:51:43;;;;;;;2.25;0.80;;;;;;;;;;4974849;28;20034;-86
2021/05/20 11:54:15;;;;;;;2.35;0.70;;;;;;;;;;4975910;28;20456;-86
2021/05/20 11:56:44;;;;;;;1.45;0.73;;;;;;;;;;4975725;28;20085;-86
2021/05/20 11:59:10;;;;;;;2.75;0.82;;;;;;;;;;4975957;28;20054;-87
2021/05/20 12:01:36;;;;;;;1.83;0.70;;;;;;;;;;4974688;28;20039;-87
2021/05/20 12:04:04;;;;;;;1.52;0.68;;;;;;;;;;4974596;28;20081;-87
2021/05/20 12:06:30;;;;;;;3.00;1.23;;;;;;;;;;4973582;28;20144;-86
2021/05/20 12:09:07;;;;;;;1.75;0.88;;;;;;;;;;4976149;28;20031;-85
2021/05/20 12:11:33;;;;;;;3.08;1.38;;;;;;;;;;4974874;28;20042;-85
2021/05/20 12:13:59;;;;;;;2.92;1.10;;;;;;;;;;4975642;28;20027;-84
2021/05/20 12:16:26;;;;;;;2.30;1.10;;;;;;;;;;4975041;28;20031;-87
2021/05/20 12:18:52;;;;;;;4.32;1.70;;;;;;;;;;4978091;28;20035;-85
2021/05/20 12:21:18;;;;;;;2.63;1.30;;;;;;;;;;4978077;28;20503;-85
2021/05/20 12:23:58;;;;;;;5.43;1.80;;;;;;;;;;4978868;28;20496;-85
2021/05/20 12:26:25;;;;;;;3.95;1.50;;;;;;;;;;4977690;28;20085;-85
2021/05/20 12:28:51;;;;;;;2.00;0.98;;;;;;;;;;4979351;28;20029;-85
2021/05/20 12:31:19;;;;;;;3.60;1.40;;;;;;;;;;4978039;28;20035;-85
2021/05/20 12:33:48;;;;;;;2.50;1.25;;;;;;;;;;4978316;28;20499;-86
2021/05/20 12:36:36;;;;;;;2.17;1.00;;;;;;;;;;4979271;28;20050;-85
2021/05/20 12:39:03;;;;;;;2.35;1.23;;;;;;;;;;4979412;28;20038;-86
2021/05/20 12:41:36;;;;;;;2.47;0.73;;;;;;;;;;4979387;28;20079;-85
2021/05/20 12:44:13;;;;;;;2.28;0.70;;;;;;;;;;4979084;28;20077;-85
2021/05/20 12:46:39;;;;;;;5.00;1.15;;;;;;;;;;4978901;28;20126;-85
2021/05/20 12:49:05;;;;;;;2.58;0.90;;;;;;;;;;4977183;28;20031;-87
2021/05/20 12:51:31;;;;;;;5.18;1.55;;;;;;;;;;4977330;28;20443;-85
2021/05/20 12:54:07;;;;;;;2.15;0.90;;;;;;;;;;4977938;28;20069;-84
2021/05/20 12:56:39;;;;;;;2.20;0.88;;;;;;;;;;4978982;28;20118;-84
2021/05/20 12:59:08;;;;;;;2.60;0.50;;;;;;;;;;4977023;28;20042;-85
2021/05/20 13:01:41;;;;;;;1.13;0.43;;;;;;;;;;4976955;28;20030;-83
2021/05/20 13:04:11;;;;;;;3.95;1.65;;;;;;;;;;4979700;28;20043;-86
2021/05/20 13:06:37;;;;;;;4.80;1.70;;;;;;;;;;4978070;28;20042;-84
2021/05/20 13:09:08;;;;;;;5.28;2.10;;;;;;;;;;4987650;28;20066;-84
2021/05/20 13:11:38;;;;;;;4.75;1.40;;;;;;;;;;4982539;28;20031;-88
2021/05/20 13:16:55;;;;;;;2.92;0.70;;;;;;;;;;4977868;28;20031;-85
2021/05/20 13:24:43;;;;;;;6.18;1.02;;;;;;;;;;4978582;28;20062;-87
2021/05/20 13:27:09;;;;;;;2.20;0.60;;;;;;;;;;4993146;28;20029;-83
2021/05/20 13:29:37;;;;;;;1.63;0.60;;;;;;;;;;4992801;28;20027;-84
2021/05/20 13:32:07;;;;;;;1.67;1.00;;;;;;;;;;4993001;28;20031;-87
2021/05/20 13:34:33;;;;;;;1.13;0.60;;;;;;;;;;4992928;28;20031;-89
2021/05/20 13:36:59;;;;;;;2.38;0.80;;;;;;;;;;4978129;28;20122;-79
2021/05/20 13:39:25;;;;;;;1.70;0.82;;;;;;;;;;4992659;28;20074;-86
2021/05/20 13:41:51;;;;;;;3.17;0.65;;;;;;;;;;4992761;28;20053;-85
2021/05/20 13:44:18;;;;;;;2.10;0.90;;;;;;;;;;4993113;28;20037;-87
2021/05/20 13:46:44;;;;;;;3.85;1.80;;;;;;;;;;4993067;28;20027;-89
2021/05/20 13:49:10;;;;;;;4.05;1.48;;;;;;;;;;4992652;28;20479;-79
2021/05/20 13:51:36;;;;;;;3.15;1.13;;;;;;;;;;4992920;28;20026;-87
2021/05/20 13:54:06;;;;;;;1.75;0.73;;;;;;;;;;4992946;28;20115;-89
2021/05/20 13:56:32;;;;;;;1.70;0.60;;;;;;;;;;4996165;28;20464;-88
2021/05/20 13:59:08;;;;;;;1.75;0.80;;;;;;;;;;4989695;28;20038;-87
2021/05/20 14:01:37;;;;;;;1.30;0.70;;;;;;;;;;4985327;28;20027;-89
2021/05/20 14:04:10;;;;;;;2.75;0.75;;;;;;;;;;5001832;28;20081;-87
2021/05/20 14:06:37;;;;;;;3.85;0.60;;;;;;;;;;4995125;28;20082;-84
2021/05/20 14:09:04;;;;;;;1.30;0.60;;;;;;;;;;4994857;28;20034;-89
2021/05/20 14:11:31;;;;;;;1.40;0.50;;;;;;;;;;4992420;28;20035;-81
2021/05/20 14:13:57;;;;;;;1.95;0.63;;;;;;;;;;4991880;28;20122;-79
2021/05/20 14:16:23;;;;;;;1.13;0.50;;;;;;;;;;4977486;28;20027;-87
2021/05/20 14:18:49;;;;;;;1.13;0.50;;;;;;;;;;4977760;28;20432;-86
2021/05/20 14:21:21;;;;;;;1.33;0.70;;;;;;;;;;4973133;28;20035;-86
2021/05/20 14:23:47;;;;;;;1.42;0.63;;;;;;;;;;4957852;28;20432;-84
2021/05/20 14:26:13;;;;;;;2.20;0.70;;;;;;;;;;4972802;28;20027;-83
2021/05/20 14:28:40;;;;;;;3.10;0.85;;;;;;;;;;4957050;28;20118;-83
2021/05/20 14:31:06;;;;;;;1.08;0.50;;;;;;;;;;4957422;28;20078;-83
2021/05/20 14:33:32;;;;;;;1.10;0.50;;;;;;;;;;4972828;28;20504;-84
2021/05/20 14:35:58;;;;;;;1.15;0.57;;;;;;;;;;4972528;28;20027;-84
2021/05/20 14:38:28;;;;;;;0.90;0.40;;;;;;;;;;4957651;28;20083;-85
2021/05/20 14:40:54;;;;;;;0.98;0.50;;;;;;;;;;4958003;28;20019;-84
2021/05/20 14:43:20;;;;;;;1.92;0.75;;;;;;;;;;4972538;28;20035;-85
2021/05/20 14:45:46;;;;;;;1.52;0.70;;;;;;;;;;4971860;28;20031;-80
2021/05/20 14:48:13;;;;;;;1.23;0.57;;;;;;;;;;4971912;28;20023;-85
2021/05/20 14:50:46;;;;;;;1.27;0.68;;;;;;;;;;4971807;28;20031;-85
2021/05/20 14:53:16;;;;;;;2.08;0.80;;;;;;;;;;4972377;28;20147;-84
2021/05/20 14:55:51;;;;;;;2.97;0.90;;;;;;;;;;4971938;28;20043;-84
2021/05/20 15:06:31;;;;;;;2.15;0.80;;;;;;;;;;4957136;28;20074;-80
2021/05/20 15:09:01;;;;;;;2.58;0.90;;;;;;;;;;4971792;28;20054;-79
2021/05/20 15:11:38;;;;;;;1.98;0.60;;;;;;;;;;4956553;28;20420;-87
2021/05/20 15:14:11;;;;;;;3.45;0.95;;;;;;;;;;4957047;28;20035;-83